createdAt,value
2022-12-05T00:01:17.285Z,96779.84
2022-12-05T00:03:44.006Z,96790.81
2022-12-05T00:06:10.842Z,96784.91
2022-12-05T00:08:37.293Z,96780.53
2022-12-05T00:11:04.069Z,96775.31
2022-12-05T00:13:30.560Z,96769.16
2022-12-05T00:15:57.007Z,96770.25
2022-12-05T00:18:23.785Z,96768.59
2022-12-05T00:20:50.519Z,96777.13
2022-12-05T00:23:17.430Z,96789.72
2022-12-05T00:25:44.006Z,96795.88
2022-12-05T00:28:10.527Z,96774.25
2022-12-05T00:30:40.821Z,96770.25
2022-12-05T00:33:07.443Z,96781.50
2022-12-05T00:35:34.544Z,96785.31
2022-12-05T00:38:00.990Z,96784.94
2022-12-05T00:40:27.431Z,96795.59
2022-12-05T00:42:54.032Z,96791.34
2022-12-05T00:45:20.604Z,96789.72
2022-12-05T00:47:47.393Z,96797.94
2022-12-05T00:50:13.879Z,96770.38
2022-12-05T00:52:40.424Z,96816.97
2022-12-05T00:55:07.090Z,96809.16
2022-12-05T00:57:33.467Z,96798.47
2022-12-05T00:59:59.987Z,96805.44
2022-12-05T01:02:26.698Z,96806.69
2022-12-05T01:04:53.110Z,96794.47
2022-12-05T01:07:19.509Z,96808.59
2022-12-05T01:09:45.980Z,96798.75
2022-12-05T01:12:12.422Z,96811.06
2022-12-05T01:14:38.864Z,96801.34
2022-12-05T01:17:05.409Z,96800.41
2022-12-05T01:19:32.907Z,96796.56
2022-12-05T01:22:00.436Z,96803.69
2022-12-05T01:24:28.374Z,96808.59
2022-12-05T01:26:54.927Z,96801.50
2022-12-05T01:29:23.231Z,96796.13
2022-12-05T01:31:49.951Z,96782.97
2022-12-05T01:34:17.957Z,96800.94
2022-12-05T01:36:45.162Z,96806.38
2022-12-05T01:39:12.557Z,96779.25
2022-12-05T01:41:46.010Z,96788.22
2022-12-05T01:44:12.619Z,96786.66
2022-12-05T01:46:44.520Z,96783.81
2022-12-05T01:49:15.354Z,96783.53
2022-12-05T01:51:46.007Z,96773.25
2022-12-05T01:54:14.944Z,96777.91
2022-12-05T01:56:44.473Z,96765.84
2022-12-05T01:59:12.299Z,96780.94
2022-12-05T02:01:39.483Z,96784.09
2022-12-05T02:04:06.731Z,96783.69
2022-12-05T02:06:34.064Z,96778.47
2022-12-05T02:09:00.671Z,96789.16
2022-12-05T02:11:30.423Z,96775.06
2022-12-05T02:14:32.183Z,96777.13
2022-12-05T02:17:21.515Z,96766.44
2022-12-05T02:20:14.532Z,96768.91
2022-12-05T02:22:59.831Z,96780.13
2022-12-05T02:25:45.024Z,96771.66
2022-12-05T02:28:36.484Z,96775.75
2022-12-05T02:31:11.325Z,96792.19
2022-12-05T02:34:13.160Z,96786.16
2022-12-05T02:36:48.780Z,96784.25
2022-12-05T02:39:29.437Z,96778.22
2022-12-05T02:42:02.953Z,96777.41
2022-12-05T02:44:39.543Z,96789.72
2022-12-05T02:47:09.004Z,96790.00
2022-12-05T02:49:36.915Z,96801.22
2022-12-05T02:52:07.884Z,96778.22
2022-12-05T02:54:40.001Z,96788.63
2022-12-05T02:57:09.945Z,96796.97
2022-12-05T02:59:37.577Z,96797.13
2022-12-05T03:02:04.230Z,96785.03
2022-12-05T03:04:31.553Z,96795.50
2022-12-05T03:07:05.047Z,96793.16
2022-12-05T03:09:51.245Z,96787.84
2022-12-05T03:12:30.976Z,96785.22
2022-12-05T03:15:10.318Z,96770.53
2022-12-05T03:17:44.604Z,96780.44
2022-12-05T03:20:28.464Z,96781.53
2022-12-05T03:22:59.915Z,96798.09
2022-12-05T03:25:35.012Z,96793.88
2022-12-05T03:28:16.981Z,96759.03
2022-12-05T03:30:43.819Z,96769.59
2022-12-05T03:33:32.858Z,96801.66
2022-12-05T03:36:13.791Z,96795.06
2022-12-05T03:38:47.801Z,96814.44
2022-12-05T03:41:31.025Z,96800.72
2022-12-05T03:44:05.281Z,96789.75
2022-12-05T03:46:40.983Z,96819.22
2022-12-05T03:49:13.486Z,96795.50
2022-12-05T03:51:49.868Z,96816.63
2022-12-05T03:54:24.321Z,96817.19
2022-12-05T03:56:58.195Z,96810.84
2022-12-05T03:59:37.021Z,96827.88
2022-12-05T04:02:11.044Z,96827.72
2022-12-05T04:04:59.823Z,96842.09
2022-12-05T04:07:32.025Z,96837.72
2022-12-05T04:10:05.519Z,96820.44
2022-12-05T04:12:35.688Z,96846.94
2022-12-05T04:15:06.976Z,96856.94
2022-12-05T04:17:53.239Z,96874.59
2022-12-05T04:20:53.300Z,96859.91
2022-12-05T04:23:20.739Z,96868.41
2022-12-05T04:26:05.559Z,96864.88
2022-12-05T04:29:22.030Z,96870.63
2022-12-05T04:31:55.509Z,96878.19
2022-12-05T04:34:24.899Z,96875.97
2022-12-05T04:37:11.161Z,96880.38
2022-12-05T04:39:44.700Z,96890.13
2022-12-05T04:42:16.541Z,96871.94
2022-12-05T04:45:05.580Z,96899.97
2022-12-05T04:47:37.666Z,96901.06
2022-12-05T04:50:07.427Z,96897.53
2022-12-05T04:52:36.307Z,96900.41
2022-12-05T04:55:10.208Z,96907.38
2022-12-05T04:57:55.720Z,96904.38
2022-12-05T05:00:22.454Z,96900.81
2022-12-05T05:02:59.302Z,96906.84
2022-12-05T05:05:28.064Z,96901.53
2022-12-05T05:07:55.640Z,96899.88
2022-12-05T05:11:05.315Z,96916.44
2022-12-05T05:13:31.703Z,96914.81
2022-12-05T05:15:58.137Z,96934.56
2022-12-05T05:18:24.603Z,96935.09
2022-12-05T05:20:51.034Z,96940.03
2022-12-05T05:23:17.418Z,96937.59
2022-12-05T05:25:43.879Z,96944.69
2022-12-05T05:28:10.298Z,96930.16
2022-12-05T05:30:36.771Z,96950.19
2022-12-05T05:33:03.763Z,96958.13
2022-12-05T05:35:30.154Z,96953.31
2022-12-05T05:37:57.505Z,96961.69
2022-12-05T05:40:23.896Z,96953.50
2022-12-05T05:42:51.113Z,96937.69
2022-12-05T05:45:17.652Z,96957.34
2022-12-05T05:47:44.477Z,96972.16
2022-12-05T05:50:14.995Z,96968.84
2022-12-05T05:52:44.521Z,96993.19
2022-12-05T05:55:11.261Z,97001.16
2022-12-05T05:57:37.706Z,96985.19
2022-12-05T06:00:06.283Z,96977.97
2022-12-05T06:02:34.721Z,96979.97
2022-12-05T06:05:01.719Z,96979.81
2022-12-05T06:07:28.578Z,96974.06
2022-12-05T06:09:55.356Z,96973.25
2022-12-05T06:12:22.316Z,96971.88
2022-12-05T06:14:49.548Z,96965.44
2022-12-05T06:17:16.842Z,96986.38
2022-12-05T06:19:43.264Z,96979.69
2022-12-05T06:22:09.766Z,96984.91
2022-12-05T06:24:36.264Z,96984.06
2022-12-05T06:27:02.788Z,96985.59
2022-12-05T06:29:33.473Z,96987.78
2022-12-05T06:32:00.420Z,96989.28
2022-12-05T06:34:26.969Z,96994.84
2022-12-05T06:36:53.447Z,97007.03
2022-12-05T06:39:20.078Z,97015.84
2022-12-05T06:41:46.520Z,97012.41
2022-12-05T06:44:12.923Z,97009.56
2022-12-05T06:46:39.406Z,96999.28
2022-12-05T06:49:05.823Z,97008.88
2022-12-05T06:51:32.339Z,97008.09
2022-12-05T06:53:58.784Z,96975.91
2022-12-05T06:56:25.306Z,97007.56
2022-12-05T06:58:53.515Z,96988.34
2022-12-05T07:01:41.504Z,96999.34
2022-12-05T07:04:15.974Z,97007.28
2022-12-05T07:06:49.880Z,97006.06
2022-12-05T07:09:18.403Z,96995.22
2022-12-05T07:11:49.902Z,97014.69
2022-12-05T07:14:38.946Z,97040.47
2022-12-05T07:17:04.497Z,97046.63
2022-12-05T07:19:30.959Z,97031.00
2022-12-05T07:21:57.381Z,97006.44
2022-12-05T07:24:24.664Z,97032.81
2022-12-05T07:26:51.178Z,97035.53
2022-12-05T07:29:17.729Z,97026.72
2022-12-05T07:31:44.308Z,97034.84
2022-12-05T07:34:10.774Z,97024.59
2022-12-05T07:36:37.186Z,97043.44
2022-12-05T07:39:04.045Z,97042.81
2022-12-05T07:41:32.781Z,97054.13
2022-12-05T07:44:00.229Z,97048.56
2022-12-05T07:46:28.793Z,97052.25
2022-12-05T07:48:58.142Z,97007.53
2022-12-05T07:51:24.786Z,97041.06
2022-12-05T07:53:52.242Z,97034.19
2022-12-05T07:56:19.253Z,97048.59
2022-12-05T07:58:47.963Z,97059.69
2022-12-05T08:01:26.744Z,97060.09
2022-12-05T08:03:55.396Z,97056.44
2022-12-05T08:06:25.023Z,97057.56
2022-12-05T08:08:52.043Z,97052.88
2022-12-05T08:11:24.487Z,97075.03
2022-12-05T08:13:51.466Z,97071.06
2022-12-05T08:16:20.867Z,97071.84
2022-12-05T08:18:47.476Z,61397.28
2022-12-05T08:21:19.155Z,97074.19
2022-12-05T08:23:46.474Z,61397.28
2022-12-05T08:26:27.087Z,97082.19
2022-12-05T08:29:05.317Z,61397.28
2022-12-05T08:31:37.514Z,97071.34
2022-12-05T08:34:04.897Z,97073.59
2022-12-05T08:36:32.640Z,97067.25
2022-12-05T08:39:00.984Z,97076.03
2022-12-05T08:41:30.263Z,61397.28
2022-12-05T08:43:58.747Z,61397.28
2022-12-05T08:46:25.603Z,61397.28
2022-12-05T08:48:52.198Z,97074.78
2022-12-05T08:51:18.712Z,97094.72
2022-12-05T08:53:45.119Z,61397.28
2022-12-05T08:56:12.148Z,97075.75
2022-12-05T08:58:40.087Z,61397.28
2022-12-05T09:01:12.212Z,61397.28
2022-12-05T09:03:43.342Z,61397.28
2022-12-05T09:06:12.570Z,61397.28
2022-12-05T09:08:39.814Z,97129.88
2022-12-05T09:11:08.304Z,97133.34
2022-12-05T09:13:36.025Z,61397.28
2022-12-05T09:16:14.604Z,97134.44
2022-12-05T09:18:41.587Z,97158.66
2022-12-05T09:21:10.648Z,97141.75
2022-12-05T09:23:37.560Z,61397.28
2022-12-05T09:26:06.154Z,97179.69
2022-12-05T09:28:34.033Z,97213.47
2022-12-05T09:31:03.618Z,97196.59
2022-12-05T09:33:31.973Z,97216.22
2022-12-05T09:35:58.541Z,97202.19
2022-12-05T09:38:24.979Z,97184.59
2022-12-05T09:41:04.875Z,97222.13
2022-12-05T09:43:52.633Z,97245.78
2022-12-05T09:46:35.778Z,97247.31
2022-12-05T09:49:04.927Z,97255.28
2022-12-05T09:51:32.322Z,97268.78
2022-12-05T09:53:58.800Z,97278.75
2022-12-05T09:56:30.631Z,97286.47
2022-12-05T09:59:00.846Z,97268.19
2022-12-05T10:01:42.433Z,97289.63
2022-12-05T10:04:18.087Z,97293.19
2022-12-05T10:06:58.287Z,97300.84
2022-12-05T10:09:30.650Z,97303.88
2022-12-05T10:12:15.524Z,97308.31
2022-12-05T10:15:13.449Z,97310.09
2022-12-05T10:17:45.745Z,97302.16
2022-12-05T10:20:16.908Z,97306.44
2022-12-05T10:22:57.018Z,97295.03
2022-12-05T10:25:27.904Z,97299.56
2022-12-05T10:28:03.494Z,97299.72
2022-12-05T10:30:33.937Z,97300.41
2022-12-05T10:33:14.542Z,97316.47
2022-12-05T10:35:43.312Z,97297.22
2022-12-05T10:38:16.706Z,97303.31
2022-12-05T10:40:47.166Z,97311.94
2022-12-05T10:43:16.726Z,97316.06
2022-12-05T10:45:45.747Z,97325.94
2022-12-05T10:48:14.512Z,97327.59
2022-12-05T10:50:43.467Z,97316.09
2022-12-05T10:53:16.980Z,97302.16
2022-12-05T10:56:06.404Z,97319.94
2022-12-05T10:58:33.588Z,97313.59
2022-12-05T11:01:09.561Z,97319.34
2022-12-05T11:03:39.220Z,97317.16
2022-12-05T11:06:25.582Z,97323.22
2022-12-05T11:09:10.056Z,97310.41
2022-12-05T11:11:36.678Z,97318.56
2022-12-05T11:14:20.990Z,97308.69
2022-12-05T11:16:54.222Z,97315.94
2022-12-05T11:19:39.146Z,97304.25
2022-12-05T11:22:08.116Z,97311.66
2022-12-05T11:24:36.787Z,97316.09
2022-12-05T11:27:25.358Z,97278.13
2022-12-05T11:30:03.006Z,97300.13
2022-12-05T11:32:33.072Z,97300.91
2022-12-05T11:35:11.698Z,97300.97
2022-12-05T11:37:54.982Z,97297.09
2022-12-05T11:40:52.967Z,97304.41
2022-12-05T11:43:37.511Z,97303.03
2022-12-05T11:46:38.194Z,97291.19
2022-12-05T11:49:26.246Z,97286.09
2022-12-05T11:52:39.042Z,97281.97
2022-12-05T11:55:15.842Z,97279.38
2022-12-05T11:58:18.227Z,97282.84
2022-12-05T12:01:35.084Z,97300.53
2022-12-05T12:04:21.249Z,97290.53
2022-12-05T12:07:07.163Z,97303.03
2022-12-05T12:09:50.762Z,97310.03
2022-12-05T12:12:52.769Z,97302.34
2022-12-05T12:15:48.096Z,97287.50
2022-12-05T12:18:45.464Z,97318.84
2022-12-05T12:21:24.316Z,97307.03
2022-12-05T12:23:56.767Z,97316.66
2022-12-05T12:26:36.827Z,97325.47
2022-12-05T12:29:25.249Z,97336.69
2022-12-05T12:32:32.921Z,97342.22
2022-12-05T12:35:27.137Z,97338.22
2022-12-05T12:38:12.127Z,97338.09
2022-12-05T12:40:38.459Z,97322.69
2022-12-05T12:43:51.695Z,97335.38
2022-12-05T12:46:17.220Z,97338.63
2022-12-05T12:48:58.356Z,97333.28
2022-12-05T12:51:25.163Z,97334.50
2022-12-05T12:54:34.186Z,97293.22
2022-12-05T12:57:30.705Z,97329.75
2022-12-05T13:00:03.848Z,97333.16
2022-12-05T13:02:45.006Z,97345.25
2022-12-05T13:05:36.128Z,97335.59
2022-12-05T13:08:25.059Z,97333.28
2022-12-05T13:10:52.447Z,97338.69
2022-12-05T13:13:40.546Z,97340.31
2022-12-05T13:16:08.466Z,97337.81
2022-12-05T13:18:35.744Z,97314.72
2022-12-05T13:21:07.240Z,97324.34
2022-12-05T13:23:41.065Z,97332.34
2022-12-05T13:26:10.807Z,97316.50
2022-12-05T13:28:50.500Z,97340.03
2022-12-05T13:31:19.374Z,97336.72
2022-12-05T13:33:48.728Z,97339.75
2022-12-05T13:36:41.409Z,97333.19
2022-12-05T13:39:39.331Z,97333.19
2022-12-05T13:42:18.825Z,97333.28
2022-12-05T13:44:49.373Z,97339.47
2022-12-05T13:47:32.613Z,97349.66
2022-12-05T13:50:17.480Z,97343.19
2022-12-05T13:52:55.184Z,97348.97
2022-12-05T13:55:35.340Z,97352.94
2022-12-05T13:58:23.897Z,97333.66
2022-12-05T14:00:52.160Z,97338.09
2022-12-05T14:03:24.412Z,97330.69
2022-12-05T14:05:53.354Z,97338.06
2022-12-05T14:08:32.285Z,97341.94
2022-12-05T14:10:58.740Z,97341.97
2022-12-05T14:13:25.404Z,97339.19
2022-12-05T14:15:54.579Z,97324.91
2022-12-05T14:18:44.597Z,97327.81
2022-12-05T14:21:18.040Z,97304.69
2022-12-05T14:24:02.707Z,97307.31
2022-12-05T14:26:48.284Z,97313.91
2022-12-05T14:29:36.902Z,97309.25
2022-12-05T14:32:24.693Z,97303.44
2022-12-05T14:35:13.624Z,97308.41
2022-12-05T14:37:50.707Z,97274.00
2022-12-05T14:40:39.666Z,97294.81
2022-12-05T14:43:17.933Z,97279.25
2022-12-05T14:45:53.250Z,97299.88
2022-12-05T14:48:19.763Z,97290.53
2022-12-05T14:50:51.932Z,97294.09
2022-12-05T14:53:21.689Z,97283.91
2022-12-05T14:55:54.124Z,97287.22
2022-12-05T14:58:49.007Z,97277.59
2022-12-05T15:01:21.179Z,97259.41
2022-12-05T15:04:00.244Z,97256.13
2022-12-05T15:06:27.719Z,97275.13
2022-12-05T15:09:21.202Z,97251.59
2022-12-05T15:11:45.997Z,97224.06
2022-12-05T15:14:29.123Z,97254.50
2022-12-05T15:16:59.607Z,97249.38
2022-12-05T15:19:31.858Z,97261.66
2022-12-05T15:22:02.912Z,97253.66
2022-12-05T15:24:37.330Z,97254.75
2022-12-05T15:27:05.963Z,97245.97
2022-12-05T15:29:33.692Z,97271.53
2022-12-05T15:32:17.051Z,97246.50
2022-12-05T15:35:06.241Z,97253.94
2022-12-05T15:37:44.164Z,97268.53
2022-12-05T15:40:17.569Z,97264.09
2022-12-05T15:42:47.116Z,97260.00
2022-12-05T15:45:14.031Z,97259.16
2022-12-05T15:47:41.898Z,97247.47
2022-12-05T15:50:38.950Z,97261.09
2022-12-05T15:53:18.915Z,97264.38
2022-12-05T15:55:47.750Z,97252.00
2022-12-05T15:58:36.926Z,97237.97
2022-12-05T16:01:11.882Z,97265.50
2022-12-05T16:04:02.388Z,97259.16
2022-12-05T16:06:31.807Z,97249.81
2022-12-05T16:09:00.603Z,97243.22
2022-12-05T16:11:27.668Z,97245.13
2022-12-05T16:14:01.929Z,97250.78
2022-12-05T16:16:35.694Z,97231.66
2022-12-05T16:19:15.416Z,97249.09
2022-12-05T16:21:46.831Z,97240.72
2022-12-05T16:24:28.844Z,97242.94
2022-12-05T16:27:29.860Z,97231.38
2022-12-05T16:30:20.490Z,97245.13
2022-12-05T16:32:49.860Z,97247.88
2022-12-05T16:35:38.556Z,97226.56
2022-12-05T16:38:10.233Z,97199.47
2022-12-05T16:40:38.797Z,97231.91
2022-12-05T16:43:16.657Z,97234.25
2022-12-05T16:45:47.191Z,97232.88
2022-12-05T16:48:19.821Z,97225.59
2022-12-05T16:50:46.677Z,97223.66
2022-12-05T16:53:27.205Z,97222.56
2022-12-05T16:55:54.125Z,97229.72
2022-12-05T16:58:26.863Z,97244.69
2022-12-05T17:00:59.806Z,97230.84
2022-12-05T17:03:34.471Z,97251.59
2022-12-05T17:06:01.590Z,97262.19
2022-12-05T17:08:28.093Z,97266.72
2022-12-05T17:10:54.740Z,97258.88
2022-12-05T17:13:21.515Z,97246.78
2022-12-05T17:15:48.084Z,97258.19
2022-12-05T17:18:27.931Z,97272.94
2022-12-05T17:21:00.923Z,97285.84
2022-12-05T17:23:27.363Z,97269.59
2022-12-05T17:25:56.302Z,97274.28
2022-12-05T17:28:23.911Z,97313.34
2022-12-05T17:30:50.859Z,97285.56
2022-12-05T17:33:19.938Z,97294.78
2022-12-05T17:35:46.868Z,97315.00
2022-12-05T17:38:13.455Z,97304.41
2022-12-05T17:40:41.717Z,97261.06
2022-12-05T17:43:12.610Z,97315.00
2022-12-05T17:45:39.306Z,97315.97
2022-12-05T17:48:06.028Z,97328.22
2022-12-05T17:50:32.878Z,97314.72
2022-12-05T17:53:04.240Z,97330.16
2022-12-05T17:55:33.664Z,97342.81
2022-12-05T17:58:00.068Z,97334.28
2022-12-05T18:00:26.583Z,97315.16
2022-12-05T18:02:53.051Z,97326.31
2022-12-05T18:05:19.795Z,97328.63
2022-12-05T18:07:46.478Z,97327.13
2022-12-05T18:10:16.251Z,97326.56
2022-12-05T18:12:43.328Z,97335.69
2022-12-05T18:15:10.236Z,97339.81
2022-12-05T18:17:36.666Z,97347.09
2022-12-05T18:20:03.973Z,97350.22
2022-12-05T18:22:30.435Z,97344.19
2022-12-05T18:24:58.679Z,61397.28
2022-12-05T18:27:25.619Z,61397.28
2022-12-05T18:29:52.073Z,97345.84
2022-12-05T18:32:19.947Z,61397.28
2022-12-05T18:34:46.452Z,61397.28
2022-12-05T18:37:12.924Z,61397.28
2022-12-05T18:39:39.642Z,61397.28
2022-12-05T18:42:11.779Z,61397.28
2022-12-05T18:44:41.370Z,61397.28
2022-12-05T18:47:08.144Z,61397.28
2022-12-05T18:49:34.602Z,61397.28
2022-12-05T18:52:01.055Z,97372.28
2022-12-05T18:54:27.945Z,61397.28
2022-12-05T18:56:54.451Z,61397.28
2022-12-05T18:59:22.387Z,97400.66
2022-12-05T19:01:50.011Z,97406.41
2022-12-05T19:04:19.616Z,61397.28
2022-12-05T19:06:52.546Z,61397.28
2022-12-05T19:09:21.778Z,97413.84
2022-12-05T19:11:50.901Z,61397.28
2022-12-05T19:14:19.346Z,61397.28
2022-12-05T19:16:48.745Z,61397.28
2022-12-05T19:19:15.570Z,61397.28
2022-12-05T19:21:42.439Z,61397.28
2022-12-05T19:24:12.068Z,97417.94
2022-12-05T19:26:38.599Z,97447.69
2022-12-05T19:29:05.792Z,97465.28
2022-12-05T19:31:33.054Z,97451.56
2022-12-05T19:34:01.662Z,97463.63
2022-12-05T19:36:32.083Z,97476.56
2022-12-05T19:38:59.411Z,97461.03
2022-12-05T19:41:28.607Z,97471.31
2022-12-05T19:43:58.238Z,97442.38
2022-12-05T19:46:27.675Z,97475.34
2022-12-05T19:48:56.435Z,97464.75
2022-12-05T19:51:22.996Z,97454.00
2022-12-05T19:53:49.480Z,61397.28
2022-12-05T19:56:17.824Z,61397.28
2022-12-05T19:58:45.149Z,61397.28
2022-12-05T20:01:15.475Z,61397.28
2022-12-05T20:03:44.062Z,61397.28
2022-12-05T20:06:11.004Z,61397.28
2022-12-05T20:08:38.598Z,61397.28
2022-12-05T20:11:10.483Z,61397.28
2022-12-05T20:13:46.913Z,61397.28
2022-12-05T20:16:15.919Z,61397.28
2022-12-05T20:18:42.714Z,61397.28
2022-12-05T20:21:13.022Z,61397.28
2022-12-05T20:23:39.821Z,61397.28
2022-12-05T20:26:09.309Z,61397.28
2022-12-05T20:28:36.388Z,61397.28
2022-12-05T20:31:07.544Z,61397.28
2022-12-05T20:33:35.008Z,61397.28
2022-12-05T20:36:11.620Z,61397.28
2022-12-05T20:38:38.918Z,61397.28
2022-12-05T20:41:08.600Z,61397.28
2022-12-05T20:43:35.151Z,61397.28
2022-12-05T20:46:11.413Z,61397.28
2022-12-05T20:48:39.149Z,61397.28
2022-12-05T20:51:07.103Z,61397.28
2022-12-05T20:53:39.095Z,61397.28
2022-12-05T20:56:08.829Z,61397.28
2022-12-05T20:58:35.883Z,61397.28
2022-12-05T21:01:05.474Z,61397.28
2022-12-05T21:03:46.167Z,61397.28
2022-12-05T21:06:16.881Z,61397.28
2022-12-05T21:08:43.727Z,61397.28
2022-12-05T21:11:12.141Z,61397.28
2022-12-05T21:13:40.341Z,61397.28
2022-12-05T21:16:10.424Z,61397.28
2022-12-05T21:18:37.464Z,61397.28
2022-12-05T21:21:25.369Z,61397.28
2022-12-05T21:23:55.220Z,61397.28
2022-12-05T21:26:23.003Z,61397.28
2022-12-05T21:28:49.710Z,61397.28
2022-12-05T21:31:25.487Z,61397.28
2022-12-05T21:33:55.079Z,61397.28
2022-12-05T21:36:22.740Z,61397.28
2022-12-05T21:38:55.639Z,61397.28
2022-12-05T21:41:22.853Z,61397.28
2022-12-05T21:43:54.076Z,61397.28
2022-12-05T21:46:21.454Z,61397.28
2022-12-05T21:48:47.875Z,61397.28
2022-12-05T21:51:14.370Z,61397.28
2022-12-05T21:53:40.884Z,61397.28
2022-12-05T21:56:11.187Z,61397.28
2022-12-05T21:58:42.051Z,61397.28
2022-12-05T22:01:09.939Z,61397.28
2022-12-05T22:03:36.480Z,61397.28
2022-12-05T22:06:07.989Z,61397.28
2022-12-05T22:08:35.905Z,61397.28
2022-12-05T22:11:07.598Z,61397.28
2022-12-05T22:13:35.299Z,61397.28
2022-12-05T22:16:02.301Z,61397.28
2022-12-05T22:18:28.956Z,61397.28
2022-12-05T22:21:03.438Z,61397.28
2022-12-05T22:23:30.402Z,61397.28
2022-12-05T22:26:02.224Z,61397.28
2022-12-05T22:28:29.644Z,61397.28
2022-12-05T22:30:58.969Z,61397.28
2022-12-05T22:33:26.733Z,61397.28
2022-12-05T22:35:58.311Z,61397.28
2022-12-05T22:38:26.508Z,61397.28
2022-12-05T22:40:55.313Z,61397.28
2022-12-05T22:43:22.983Z,61397.28
2022-12-05T22:45:49.481Z,61397.28
2022-12-05T22:48:16.034Z,61397.28
2022-12-05T22:50:50.529Z,61397.28
2022-12-05T22:53:23.027Z,61397.28
2022-12-05T22:55:50.256Z,61397.28
2022-12-05T22:58:17.591Z,61397.28
2022-12-05T23:00:44.532Z,61397.28
2022-12-05T23:03:11.354Z,61397.28
2022-12-05T23:05:42.322Z,61397.28
2022-12-05T23:08:09.991Z,61397.28
2022-12-05T23:10:39.057Z,61397.28
2022-12-05T23:13:09.208Z,61397.28
2022-12-05T23:15:38.804Z,61397.28
2022-12-05T23:18:05.443Z,61397.28
2022-12-05T23:20:32.696Z,61397.28
2022-12-05T23:22:59.160Z,61397.28
2022-12-05T23:25:25.612Z,61397.28
2022-12-05T23:27:52.045Z,61397.28
2022-12-05T23:30:18.590Z,61397.28
2022-12-05T23:32:45.035Z,61397.28
2022-12-05T23:35:11.774Z,61397.28
2022-12-05T23:37:38.260Z,61397.28
2022-12-05T23:40:05.993Z,61397.28
2022-12-05T23:42:32.480Z,61397.28
2022-12-05T23:44:58.910Z,61397.28
2022-12-05T23:47:25.591Z,61397.28
2022-12-05T23:49:52.367Z,61397.28
2022-12-05T23:52:19.052Z,61397.28
2022-12-05T23:54:45.604Z,61397.28
2022-12-05T23:57:17.247Z,61397.28
2022-12-05T23:59:44.374Z,61397.28
